createdAt,value
2022-11-20T00:00:25.805Z,29.98
2022-11-20T00:03:13.940Z,27.90
2022-11-20T00:05:41.953Z,28.10
2022-11-20T00:08:09.198Z,27.77
2022-11-20T00:10:41.194Z,29.92
2022-11-20T00:13:08.956Z,29.30
2022-11-20T00:15:36.395Z,28.75
2022-11-20T00:18:03.627Z,29.50
2022-11-20T00:20:31.210Z,28.65
2022-11-20T00:22:58.425Z,29.13
2022-11-20T00:25:25.867Z,27.20
2022-11-20T00:27:53.268Z,31.83
2022-11-20T00:30:20.781Z,32.17
2022-11-20T00:32:47.888Z,29.25
2022-11-20T00:35:15.416Z,30.92
2022-11-20T00:37:42.631Z,27.77
2022-11-20T00:40:10.626Z,31.88
2022-11-20T00:42:37.819Z,30.85
2022-11-20T00:45:06.101Z,29.77
2022-11-20T00:47:33.208Z,36.30
2022-11-20T00:50:00.804Z,30.65
2022-11-20T00:52:27.970Z,30.58
2022-11-20T00:54:55.379Z,28.85
2022-11-20T00:57:22.488Z,29.67
2022-11-20T00:59:49.990Z,29.88
2022-11-20T01:02:17.468Z,30.02
2022-11-20T01:04:44.912Z,30.05
2022-11-20T01:07:12.180Z,28.92
2022-11-20T01:09:39.722Z,29.92
2022-11-20T01:12:07.154Z,30.80
2022-11-20T01:14:34.575Z,30.05
2022-11-20T01:17:01.706Z,30.00
2022-11-20T01:19:29.141Z,28.85
2022-11-20T01:21:57.354Z,30.38
2022-11-20T01:24:24.782Z,29.67
2022-11-20T01:26:52.937Z,30.08
2022-11-20T01:29:25.740Z,28.17
2022-11-20T01:31:54.047Z,27.02
2022-11-20T01:34:23.253Z,26.17
2022-11-20T01:36:51.217Z,26.02
2022-11-20T01:39:28.203Z,27.70
2022-11-20T01:42:15.547Z,24.65
2022-11-20T01:44:54.201Z,25.50
2022-11-20T01:47:43.589Z,25.52
2022-11-20T01:50:11.021Z,26.95
2022-11-20T01:52:50.941Z,23.25
2022-11-20T01:55:26.084Z,26.58
2022-11-20T01:57:53.707Z,25.05
2022-11-20T02:00:22.522Z,23.08
2022-11-20T02:02:54.888Z,22.55
2022-11-20T02:05:28.145Z,23.20
2022-11-20T02:07:58.825Z,23.38
2022-11-20T02:10:28.072Z,21.57
2022-11-20T02:13:13.897Z,22.25
2022-11-20T02:15:41.884Z,22.52
2022-11-20T02:18:11.038Z,22.67
2022-11-20T02:20:40.269Z,21.67
2022-11-20T02:23:17.551Z,23.45
2022-11-20T02:25:48.377Z,26.77
2022-11-20T02:28:16.092Z,23.25
2022-11-20T02:30:43.727Z,23.88
2022-11-20T02:33:10.876Z,23.30
2022-11-20T02:35:42.736Z,21.90
2022-11-20T02:38:10.121Z,22.20
2022-11-20T02:40:37.610Z,23.70
2022-11-20T02:43:04.896Z,21.95
2022-11-20T02:45:32.752Z,23.27
2022-11-20T02:47:59.922Z,22.13
2022-11-20T02:50:27.614Z,25.15
2022-11-20T02:52:54.762Z,22.33
2022-11-20T02:55:22.279Z,21.83
2022-11-20T02:57:49.510Z,22.98
2022-11-20T03:00:17.107Z,23.13
2022-11-20T03:02:44.313Z,24.08
2022-11-20T03:05:11.719Z,21.52
2022-11-20T03:07:38.941Z,22.70
2022-11-20T03:10:07.058Z,22.33
2022-11-20T03:12:34.237Z,20.98
2022-11-20T03:15:01.766Z,21.75
2022-11-20T03:17:30.444Z,22.75
2022-11-20T03:19:57.941Z,22.95
2022-11-20T03:22:25.080Z,23.52
2022-11-20T03:24:53.085Z,21.70
2022-11-20T03:27:20.277Z,23.85
2022-11-20T03:29:47.701Z,22.85
2022-11-20T03:32:15.033Z,23.15
2022-11-20T03:34:42.468Z,23.92
2022-11-20T03:37:09.595Z,33.78
2022-11-20T03:39:37.011Z,24.23
2022-11-20T03:42:24.087Z,23.50
2022-11-20T03:44:51.499Z,22.67
2022-11-20T03:47:18.608Z,22.67
2022-11-20T03:49:46.024Z,22.83
2022-11-20T03:52:13.208Z,23.92
2022-11-20T03:54:40.678Z,23.13
2022-11-20T03:57:07.855Z,23.85
2022-11-20T03:59:35.282Z,21.40
2022-11-20T04:02:02.474Z,21.42
2022-11-20T04:04:30.102Z,22.88
2022-11-20T04:06:57.315Z,22.15
2022-11-20T04:09:24.856Z,22.98
2022-11-20T04:11:52.081Z,22.38
2022-11-20T04:14:19.534Z,22.30
2022-11-20T04:16:46.716Z,24.00
2022-11-20T04:19:16.528Z,24.13
2022-11-20T04:21:45.066Z,23.20
2022-11-20T04:24:12.771Z,23.67
2022-11-20T04:26:40.261Z,22.95
2022-11-20T04:29:08.078Z,23.25
2022-11-20T04:31:35.862Z,22.85
2022-11-20T04:34:06.175Z,22.65
2022-11-20T04:36:34.726Z,23.98
2022-11-20T04:39:06.081Z,22.85
2022-11-20T04:41:35.569Z,23.17
2022-11-20T04:44:04.710Z,25.80
2022-11-20T04:46:33.634Z,26.98
2022-11-20T04:49:01.215Z,26.25
2022-11-20T04:51:28.545Z,25.40
2022-11-20T04:53:56.384Z,26.90
2022-11-20T04:56:23.845Z,26.38
2022-11-20T04:58:51.654Z,25.42
2022-11-20T05:01:21.650Z,26.52
2022-11-20T05:03:49.864Z,25.92
2022-11-20T05:06:19.309Z,27.27
2022-11-20T05:08:46.832Z,24.65
2022-11-20T05:11:19.923Z,26.73
2022-11-20T05:13:48.374Z,26.50
2022-11-20T05:16:18.784Z,25.38
2022-11-20T05:18:46.606Z,24.37
2022-11-20T05:21:14.871Z,24.00
2022-11-20T05:23:43.378Z,24.23
2022-11-20T05:26:18.905Z,26.23
2022-11-20T05:28:46.767Z,24.02
2022-11-20T05:31:20.755Z,26.25
2022-11-20T05:33:51.758Z,26.10
2022-11-20T05:36:19.164Z,26.23
2022-11-20T05:38:50.336Z,24.30
2022-11-20T05:41:20.150Z,26.08
2022-11-20T05:43:48.940Z,27.08
2022-11-20T05:46:20.339Z,25.73
2022-11-20T05:48:49.835Z,24.23
2022-11-20T05:51:19.024Z,24.67
2022-11-20T05:53:48.591Z,23.85
2022-11-20T05:56:19.372Z,23.63
2022-11-20T05:58:47.783Z,23.45
2022-11-20T06:01:23.847Z,23.23
2022-11-20T06:03:52.299Z,22.80
2022-11-20T06:06:20.791Z,23.33
2022-11-20T06:08:49.193Z,22.60
2022-11-20T06:11:17.729Z,22.48
2022-11-20T06:13:45.826Z,22.73
2022-11-20T06:16:15.251Z,22.70
2022-11-20T06:18:43.057Z,23.33
2022-11-20T06:21:18.259Z,22.08
2022-11-20T06:23:46.483Z,21.30
2022-11-20T06:26:16.113Z,22.00
2022-11-20T06:28:43.952Z,21.48
2022-11-20T06:31:14.441Z,21.35
2022-11-20T06:33:42.876Z,22.80
2022-11-20T06:36:11.675Z,23.58
2022-11-20T06:38:40.342Z,23.75
2022-11-20T06:41:11.519Z,24.25
2022-11-20T06:43:38.966Z,23.33
2022-11-20T06:46:06.135Z,25.08
2022-11-20T06:48:33.891Z,26.55
2022-11-20T06:51:03.563Z,23.77
2022-11-20T06:53:30.997Z,27.13
2022-11-20T06:56:01.093Z,25.52
2022-11-20T06:58:30.714Z,26.58
2022-11-20T07:01:12.402Z,25.30
2022-11-20T07:06:08.397Z,22.48
2022-11-20T07:08:35.926Z,23.60
2022-11-20T07:11:06.518Z,24.00
2022-11-20T07:13:34.656Z,22.08
2022-11-20T07:16:03.823Z,21.75
2022-11-20T07:18:31.432Z,22.48
2022-11-20T07:21:02.790Z,24.45
2022-11-20T07:23:30.498Z,22.70
2022-11-20T07:25:57.633Z,22.75
2022-11-20T07:28:25.097Z,24.05
2022-11-20T07:30:53.501Z,23.65
2022-11-20T07:33:21.378Z,23.75
2022-11-20T07:35:48.609Z,22.98
2022-11-20T07:38:16.081Z,24.88
2022-11-20T07:40:43.411Z,23.83
2022-11-20T07:43:10.949Z,23.25
2022-11-20T07:45:38.217Z,24.70
2022-11-20T07:48:05.789Z,25.08
2022-11-20T07:50:32.914Z,25.60
2022-11-20T07:53:05.569Z,24.90
2022-11-20T07:55:33.754Z,24.95
2022-11-20T07:58:01.331Z,24.42
2022-11-20T08:00:28.657Z,24.50
2022-11-20T08:02:56.177Z,23.52
2022-11-20T08:05:23.783Z,24.05
2022-11-20T08:07:51.232Z,22.55
2022-11-20T08:10:18.575Z,24.10
2022-11-20T08:13:10.154Z,23.77
2022-11-20T08:15:39.497Z,25.10
2022-11-20T08:21:03.949Z,24.70
2022-11-20T08:23:31.946Z,25.02
2022-11-20T08:25:59.085Z,26.67
2022-11-20T08:28:26.554Z,26.13
2022-11-20T08:30:59.504Z,24.73
2022-11-20T08:33:27.160Z,25.63
2022-11-20T08:35:54.296Z,26.08
2022-11-20T08:38:21.705Z,23.98
2022-11-20T08:41:08.974Z,23.60
2022-11-20T08:43:36.488Z,24.73
2022-11-20T08:46:03.629Z,25.50
2022-11-20T08:48:31.064Z,26.00
2022-11-20T08:51:00.548Z,26.13
2022-11-20T08:53:28.761Z,26.40
2022-11-20T08:55:57.980Z,25.17
2022-11-20T08:58:26.660Z,25.35
2022-11-20T09:00:54.177Z,25.42
2022-11-20T09:03:21.698Z,27.13
2022-11-20T09:05:48.866Z,26.98
2022-11-20T09:08:16.338Z,27.27
2022-11-20T09:10:43.554Z,26.05
2022-11-20T09:13:11.118Z,29.73
2022-11-20T09:15:38.303Z,27.55
2022-11-20T09:18:06.038Z,26.98
2022-11-20T09:20:33.173Z,27.83
2022-11-20T09:23:00.623Z,25.45
2022-11-20T09:25:27.976Z,26.80
2022-11-20T09:27:59.597Z,26.15
2022-11-20T09:30:27.994Z,26.67
2022-11-20T09:32:55.852Z,27.90
2022-11-20T09:35:23.341Z,26.40
2022-11-20T09:37:50.896Z,28.15
2022-11-20T09:40:27.470Z,28.30
2022-11-20T09:43:20.246Z,28.55
2022-11-20T09:46:08.568Z,29.98
2022-11-20T09:48:54.212Z,29.98
2022-11-20T09:51:34.098Z,30.50
2022-11-20T09:54:19.091Z,30.85
2022-11-20T09:56:54.722Z,32.45
2022-11-20T09:59:34.882Z,30.55
2022-11-20T10:02:07.503Z,33.63
2022-11-20T10:04:39.668Z,34.80
2022-11-20T10:07:36.011Z,33.22
2022-11-20T10:10:03.726Z,33.80
2022-11-20T10:12:56.893Z,34.45
2022-11-20T10:15:34.935Z,32.90
2022-11-20T10:18:28.463Z,35.33
2022-11-20T10:21:14.381Z,34.85
2022-11-20T10:23:57.525Z,34.00
2022-11-20T10:26:36.824Z,36.25
2022-11-20T10:29:15.642Z,33.63
2022-11-20T10:31:51.869Z,32.75
2022-11-20T10:34:44.987Z,33.95
2022-11-20T10:37:27.330Z,33.75
2022-11-20T10:40:01.745Z,39.28
2022-11-20T10:42:45.987Z,38.10
2022-11-20T10:45:25.407Z,36.70
2022-11-20T10:48:09.063Z,37.67
2022-11-20T10:50:50.810Z,35.40
2022-11-20T10:56:18.796Z,34.53
2022-11-20T10:59:17.765Z,34.40
2022-11-20T11:01:45.039Z,36.65
2022-11-20T11:04:34.047Z,33.72
2022-11-20T11:07:19.001Z,32.42
2022-11-20T11:10:32.985Z,32.13
2022-11-20T11:13:00.165Z,31.33
2022-11-20T11:15:38.301Z,33.00
2022-11-20T11:18:06.163Z,32.63
2022-11-20T11:20:33.613Z,32.35
2022-11-20T11:23:01.276Z,33.00
2022-11-20T11:25:36.753Z,34.15
2022-11-20T11:28:20.777Z,32.85
2022-11-20T11:30:50.337Z,33.45
2022-11-20T11:33:35.870Z,37.13
2022-11-20T11:36:19.194Z,34.03
2022-11-20T11:38:46.733Z,37.17
2022-11-20T11:41:19.897Z,36.22
2022-11-20T11:44:19.358Z,37.28
2022-11-20T11:46:56.296Z,37.50
2022-11-20T11:49:23.681Z,36.67
2022-11-20T11:52:11.488Z,39.03
2022-11-20T11:54:55.442Z,39.28
2022-11-20T11:57:38.069Z,39.88
2022-11-20T12:00:15.491Z,38.13
2022-11-20T12:02:45.906Z,39.08
2022-11-20T12:05:41.220Z,38.67
2022-11-20T12:08:40.116Z,40.20
2022-11-20T12:11:31.004Z,39.97
2022-11-20T12:14:20.890Z,39.25
2022-11-20T12:16:48.069Z,39.40
2022-11-20T12:19:15.883Z,40.10
2022-11-20T12:22:08.720Z,39.78
2022-11-20T12:24:53.320Z,39.50
2022-11-20T12:27:29.564Z,36.85
2022-11-20T12:30:09.267Z,37.20
2022-11-20T12:33:13.256Z,38.03
2022-11-20T12:36:28.602Z,40.17
2022-11-20T12:39:14.045Z,42.70
2022-11-20T12:42:30.131Z,37.70
2022-11-20T12:45:24.120Z,38.38
2022-11-20T12:48:10.156Z,42.53
2022-11-20T12:51:14.625Z,37.17
2022-11-20T12:53:54.965Z,40.17
2022-11-20T12:56:29.922Z,39.50
2022-11-20T12:59:19.391Z,42.05
2022-11-20T13:01:53.871Z,40.80
2022-11-20T13:04:48.548Z,40.85
2022-11-20T13:07:17.399Z,41.33
2022-11-20T13:09:47.821Z,37.25
2022-11-20T13:12:31.935Z,38.10
2022-11-20T13:15:12.850Z,38.33
2022-11-20T13:17:43.752Z,41.80
2022-11-20T13:20:18.218Z,39.42
2022-11-20T13:22:46.977Z,39.60
2022-11-20T13:25:28.385Z,35.30
2022-11-20T13:27:58.058Z,39.33
2022-11-20T13:30:30.283Z,36.13
2022-11-20T13:33:00.865Z,36.45
2022-11-20T13:35:56.131Z,38.58
2022-11-20T13:38:23.305Z,40.53
2022-11-20T13:40:57.158Z,38.60
2022-11-20T13:43:38.305Z,37.58
2022-11-20T13:46:08.341Z,37.60
2022-11-20T13:48:43.579Z,39.28
2022-11-20T13:51:33.278Z,35.90
2022-11-20T13:54:27.470Z,37.35
2022-11-20T13:57:13.244Z,37.25
2022-11-20T13:59:55.580Z,38.88
2022-11-20T14:02:26.052Z,40.45
2022-11-20T14:04:55.605Z,38.45
2022-11-20T14:07:36.101Z,39.65
2022-11-20T14:10:03.926Z,40.53
2022-11-20T14:12:34.139Z,40.30
2022-11-20T14:15:01.325Z,42.70
2022-11-20T14:17:34.589Z,38.22
2022-11-20T14:20:07.428Z,39.15
2022-11-20T14:22:34.906Z,39.72
2022-11-20T14:25:13.209Z,38.17
2022-11-20T14:27:43.243Z,40.95
2022-11-20T14:30:22.173Z,43.03
2022-11-20T14:32:50.872Z,40.28
2022-11-20T14:35:30.251Z,41.22
2022-11-20T14:37:58.314Z,38.80
2022-11-20T14:40:37.928Z,40.38
2022-11-20T14:43:25.225Z,40.42
2022-11-20T14:46:04.951Z,44.22
2022-11-20T14:48:41.962Z,41.22
2022-11-20T14:51:24.075Z,41.92
2022-11-20T14:53:52.105Z,41.20
2022-11-20T14:56:25.160Z,40.17
2022-11-20T14:58:59.080Z,40.50
2022-11-20T15:01:30.848Z,47.03
2022-11-20T15:04:02.665Z,44.70
2022-11-20T15:06:30.606Z,46.28
2022-11-20T15:08:58.555Z,44.25
2022-11-20T15:11:36.809Z,48.50
2022-11-20T15:14:07.721Z,46.08
2022-11-20T15:16:35.033Z,49.05
2022-11-20T15:19:03.903Z,47.05
2022-11-20T15:21:31.186Z,48.70
2022-11-20T15:23:59.424Z,45.88
2022-11-20T15:26:28.390Z,47.75
2022-11-20T15:28:56.174Z,50.75
2022-11-20T15:31:24.765Z,47.35
2022-11-20T15:33:52.319Z,45.42
2022-11-20T15:36:19.611Z,47.95
2022-11-20T15:38:47.214Z,47.47
2022-11-20T15:41:14.585Z,49.78
2022-11-20T15:43:42.092Z,47.47
2022-11-20T15:46:18.207Z,50.17
2022-11-20T15:48:49.780Z,49.55
2022-11-20T15:51:27.386Z,47.20
2022-11-20T15:53:56.198Z,50.20
2022-11-20T15:56:23.509Z,52.45
2022-11-20T15:58:50.970Z,52.63
2022-11-20T16:01:21.781Z,49.03
2022-11-20T16:03:49.928Z,50.23
2022-11-20T16:06:20.124Z,50.47
2022-11-20T16:08:47.636Z,54.22
2022-11-20T16:11:16.501Z,55.92
2022-11-20T16:14:03.001Z,52.60
2022-11-20T16:16:37.400Z,52.47
2022-11-20T16:19:05.503Z,50.90
2022-11-20T16:21:32.989Z,53.90
2022-11-20T16:24:06.409Z,53.22
2022-11-20T16:26:33.798Z,49.70
2022-11-20T16:29:02.236Z,55.33
2022-11-20T16:31:29.713Z,51.95
2022-11-20T16:34:00.579Z,51.30
2022-11-20T16:36:29.608Z,51.28
2022-11-20T16:38:59.566Z,54.67
2022-11-20T16:41:28.659Z,55.83
2022-11-20T16:43:58.300Z,55.47
2022-11-20T16:46:30.971Z,52.55
2022-11-20T16:48:59.494Z,51.08
2022-11-20T16:51:28.917Z,53.85
2022-11-20T16:53:57.234Z,55.38
2022-11-20T16:56:26.922Z,55.80
2022-11-20T16:58:57.362Z,57.85
2022-11-20T17:01:26.462Z,57.38
2022-11-20T17:03:59.462Z,59.10
2022-11-20T17:06:29.112Z,56.28
2022-11-20T17:08:57.971Z,56.22
2022-11-20T17:11:26.868Z,54.25
2022-11-20T17:14:00.753Z,53.08
2022-11-20T17:16:28.522Z,58.05
2022-11-20T17:19:02.513Z,58.60
2022-11-20T17:21:31.592Z,50.88
2022-11-20T17:24:04.773Z,57.60
2022-11-20T17:26:32.665Z,53.65
2022-11-20T17:29:03.080Z,54.80
2022-11-20T17:31:31.795Z,52.03
2022-11-20T17:34:00.449Z,54.50
2022-11-20T17:36:29.174Z,57.78
2022-11-20T17:38:56.654Z,51.58
2022-11-20T17:41:26.104Z,55.30
2022-11-20T17:43:58.985Z,54.95
2022-11-20T17:46:28.907Z,50.92
2022-11-20T17:48:56.642Z,53.65
2022-11-20T17:51:26.507Z,51.28
2022-11-20T17:53:57.152Z,53.50
2022-11-20T17:56:42.985Z,52.88
2022-11-20T17:59:12.397Z,52.65
2022-11-20T18:01:42.989Z,51.80
2022-11-20T18:04:11.524Z,53.07
2022-11-20T18:06:38.878Z,58.95
2022-11-20T18:09:07.114Z,52.38
2022-11-20T18:11:37.201Z,51.78
2022-11-20T18:14:26.102Z,59.47
2022-11-20T18:16:58.792Z,54.15
2022-11-20T18:19:32.455Z,53.90
2022-11-20T18:22:01.980Z,58.40
2022-11-20T18:24:29.866Z,57.47
2022-11-20T18:26:58.438Z,59.95
2022-11-20T18:29:27.036Z,56.35
2022-11-20T18:31:54.673Z,57.15
2022-11-20T18:34:22.725Z,57.53
2022-11-20T18:36:51.398Z,61.15
2022-11-20T18:39:19.033Z,58.42
2022-11-20T18:42:04.777Z,58.67
2022-11-20T18:44:51.491Z,60.55
2022-11-20T18:47:31.061Z,67.55
2022-11-20T18:50:01.120Z,61.38
2022-11-20T18:52:34.077Z,58.97
2022-11-20T18:55:02.911Z,59.60
2022-11-20T18:57:31.825Z,62.80
2022-11-20T19:00:03.509Z,67.15
2022-11-20T19:02:39.422Z,62.53
2022-11-20T19:05:13.523Z,66.18
2022-11-20T19:07:41.120Z,59.83
2022-11-20T19:10:09.277Z,71.32
2022-11-20T19:12:36.527Z,62.85
2022-11-20T19:15:04.909Z,62.42
2022-11-20T19:17:33.718Z,61.60
2022-11-20T19:20:01.380Z,61.75
2022-11-20T19:22:28.632Z,58.83
2022-11-20T19:24:56.107Z,60.28
2022-11-20T19:27:23.405Z,59.42
2022-11-20T19:29:50.930Z,56.10
2022-11-20T19:32:18.070Z,64.63
2022-11-20T19:34:45.522Z,60.53
2022-11-20T19:37:13.221Z,57.25
2022-11-20T19:39:40.836Z,59.65
2022-11-20T19:42:07.998Z,57.63
2022-11-20T19:44:35.964Z,55.92
2022-11-20T19:47:08.979Z,57.38
2022-11-20T19:49:38.284Z,56.72
2022-11-20T19:52:05.663Z,54.95
2022-11-20T19:54:33.251Z,61.45
2022-11-20T19:57:00.542Z,53.88
2022-11-20T19:59:28.441Z,55.33
2022-11-20T20:01:55.658Z,55.58
2022-11-20T20:04:23.195Z,52.08
2022-11-20T20:06:50.831Z,52.33
2022-11-20T20:09:18.707Z,57.25
2022-11-20T20:11:47.160Z,54.00
2022-11-20T20:14:16.578Z,55.53
2022-11-20T20:16:43.991Z,55.90
2022-11-20T20:19:13.622Z,53.25
2022-11-20T20:21:41.566Z,53.55
2022-11-20T20:24:10.648Z,55.35
2022-11-20T20:26:38.195Z,54.17
2022-11-20T20:29:05.855Z,53.05
2022-11-20T20:31:34.060Z,53.45
2022-11-20T20:34:03.514Z,51.83
2022-11-20T20:36:30.989Z,54.83
2022-11-20T20:39:05.157Z,50.63
2022-11-20T20:41:32.848Z,55.95
2022-11-20T20:44:20.480Z,51.80
2022-11-20T20:46:47.710Z,51.58
2022-11-20T20:49:15.174Z,52.25
2022-11-20T20:51:42.374Z,51.22
2022-11-20T20:54:09.922Z,54.92
2022-11-20T20:56:37.080Z,50.75
2022-11-20T20:59:04.608Z,50.42
2022-11-20T21:01:31.919Z,49.25
2022-11-20T21:03:59.623Z,50.47
2022-11-20T21:06:26.861Z,50.80
2022-11-20T21:08:56.053Z,50.45
2022-11-20T21:11:23.406Z,50.00
2022-11-20T21:13:50.964Z,48.30
2022-11-20T21:16:20.709Z,51.53
2022-11-20T21:18:49.215Z,47.10
2022-11-20T21:21:36.152Z,49.85
2022-11-20T21:24:04.421Z,46.83
2022-11-20T21:26:31.643Z,46.97
2022-11-20T21:28:59.185Z,46.58
2022-11-20T21:31:27.138Z,47.60
2022-11-20T21:33:56.668Z,45.95
2022-11-20T21:36:26.646Z,48.85
2022-11-20T21:38:55.491Z,46.10
2022-11-20T21:41:24.478Z,44.63
2022-11-20T21:44:16.310Z,42.95
2022-11-20T21:46:45.144Z,41.58
2022-11-20T21:49:12.709Z,40.20
2022-11-20T21:51:40.564Z,37.03
2022-11-20T21:54:09.539Z,36.85
2022-11-20T21:56:37.008Z,38.35
2022-11-20T21:59:04.306Z,36.92
2022-11-20T22:01:32.109Z,36.05
2022-11-20T22:04:01.644Z,37.92
2022-11-20T22:06:34.103Z,38.28
2022-11-20T22:09:04.405Z,35.85
2022-11-20T22:11:31.915Z,34.63
2022-11-20T22:14:18.057Z,34.35
2022-11-20T22:16:45.517Z,34.35
2022-11-20T22:19:16.256Z,36.85
2022-11-20T22:21:43.790Z,35.70
2022-11-20T22:24:16.057Z,33.65
2022-11-20T22:26:44.274Z,33.85
2022-11-20T22:29:16.600Z,32.38
2022-11-20T22:31:44.127Z,29.02
2022-11-20T22:34:12.701Z,29.60
2022-11-20T22:36:40.950Z,28.40
2022-11-20T22:39:08.160Z,30.40
2022-11-20T22:41:35.684Z,29.80
2022-11-20T22:44:05.978Z,26.33
2022-11-20T22:46:35.362Z,26.83
2022-11-20T22:49:05.887Z,24.65
2022-11-20T22:51:39.261Z,25.35
2022-11-20T22:54:07.584Z,24.90
2022-11-20T22:56:35.220Z,23.15
2022-11-20T22:59:02.720Z,25.20
2022-11-20T23:01:32.323Z,24.13
2022-11-20T23:04:01.836Z,22.85
2022-11-20T23:06:30.064Z,24.42
2022-11-20T23:08:57.625Z,21.48
2022-11-20T23:11:27.560Z,25.45
2022-11-20T23:14:03.819Z,22.45
2022-11-20T23:16:32.428Z,23.30
2022-11-20T23:19:02.609Z,21.60
2022-11-20T23:21:30.124Z,23.77
2022-11-20T23:23:58.573Z,22.10
2022-11-20T23:26:32.307Z,21.67
2022-11-20T23:29:00.598Z,21.95
2022-11-20T23:31:30.160Z,22.15
2022-11-20T23:33:58.828Z,23.75
2022-11-20T23:36:26.431Z,23.00
2022-11-20T23:38:53.921Z,22.75
2022-11-20T23:41:21.104Z,21.63
2022-11-20T23:43:48.550Z,23.33
2022-11-20T23:46:16.886Z,22.80
2022-11-20T23:48:45.537Z,21.38
2022-11-20T23:51:13.521Z,21.17
2022-11-20T23:53:41.000Z,20.88
2022-11-20T23:56:08.592Z,21.65
2022-11-20T23:58:38.134Z,21.00
